createdAt,value
2022-11-22T00:00:38.468Z,10.93
2022-11-22T00:03:11.322Z,10.92
2022-11-22T00:05:44.361Z,10.94
2022-11-22T00:08:19.170Z,10.95
2022-11-22T00:10:52.645Z,10.96
2022-11-22T00:13:25.450Z,10.99
2022-11-22T00:15:59.962Z,11.01
2022-11-22T00:18:33.232Z,11.00
2022-11-22T00:21:07.504Z,11.04
2022-11-22T00:23:42.033Z,11.04
2022-11-22T00:26:15.086Z,11.04
2022-11-22T00:28:47.879Z,11.04
2022-11-22T00:31:20.983Z,11.02
2022-11-22T00:33:53.742Z,11.00
2022-11-22T00:36:26.805Z,10.96
2022-11-22T00:39:01.074Z,10.96
2022-11-22T00:41:34.064Z,10.93
2022-11-22T00:44:07.043Z,10.92
2022-11-22T00:46:40.045Z,10.91
2022-11-22T00:49:12.949Z,10.91
2022-11-22T00:51:45.832Z,10.89
2022-11-22T00:54:20.128Z,10.92
2022-11-22T00:56:52.947Z,10.91
2022-11-22T00:59:25.747Z,10.92
2022-11-22T01:01:58.606Z,10.93
2022-11-22T01:04:31.643Z,10.94
2022-11-22T01:07:04.713Z,10.96
2022-11-22T01:09:38.933Z,10.97
2022-11-22T01:12:11.804Z,10.97
2022-11-22T01:14:44.772Z,10.98
2022-11-22T01:17:17.908Z,10.98
2022-11-22T01:19:50.711Z,11.00
2022-11-22T01:22:23.588Z,11.01
2022-11-22T01:24:58.238Z,11.03
2022-11-22T01:27:31.030Z,11.06
2022-11-22T01:30:04.001Z,11.09
2022-11-22T01:32:36.818Z,11.10
2022-11-22T01:35:10.788Z,11.13
2022-11-22T01:37:43.673Z,11.18
2022-11-22T01:40:17.942Z,11.19
2022-11-22T01:42:53.818Z,11.22
2022-11-22T01:45:43.499Z,11.26
2022-11-22T01:48:23.075Z,11.29
2022-11-22T01:51:02.710Z,11.29
2022-11-22T01:53:38.560Z,11.29
2022-11-22T01:56:15.618Z,11.28
2022-11-22T01:58:54.419Z,11.27
2022-11-22T02:01:28.631Z,11.25
2022-11-22T02:04:03.734Z,11.26
2022-11-22T02:06:43.579Z,11.26
2022-11-22T02:09:17.864Z,11.23
2022-11-22T02:11:55.040Z,11.24
2022-11-22T02:14:29.363Z,11.22
2022-11-22T02:17:02.159Z,11.19
2022-11-22T02:19:41.927Z,11.18
2022-11-22T02:22:30.630Z,11.16
2022-11-22T02:25:10.115Z,11.13
2022-11-22T02:27:44.721Z,11.11
2022-11-22T02:30:18.974Z,11.09
2022-11-22T02:32:51.947Z,11.07
2022-11-22T02:35:27.234Z,11.03
2022-11-22T02:38:03.038Z,10.99
2022-11-22T02:40:39.319Z,10.97
2022-11-22T02:43:16.630Z,10.92
2022-11-22T02:45:49.487Z,10.90
2022-11-22T02:48:22.713Z,10.89
2022-11-22T02:50:55.550Z,10.86
2022-11-22T02:53:30.963Z,10.86
2022-11-22T02:56:03.834Z,10.87
2022-11-22T02:58:38.163Z,10.89
2022-11-22T03:01:11.317Z,10.88
2022-11-22T03:03:44.148Z,10.88
2022-11-22T03:06:17.089Z,10.88
2022-11-22T03:08:55.870Z,10.88
2022-11-22T03:11:29.544Z,10.90
2022-11-22T03:14:03.693Z,10.91
2022-11-22T03:16:36.506Z,10.90
2022-11-22T03:19:09.710Z,10.90
2022-11-22T03:21:43.945Z,10.89
2022-11-22T03:24:16.903Z,10.90
2022-11-22T03:26:50.868Z,10.90
2022-11-22T03:29:25.413Z,10.90
2022-11-22T03:31:58.228Z,10.88
2022-11-22T03:34:31.016Z,10.87
2022-11-22T03:37:03.864Z,10.87
2022-11-22T03:39:36.753Z,10.86
2022-11-22T03:42:09.944Z,10.85
2022-11-22T03:44:44.112Z,10.87
2022-11-22T03:47:16.958Z,10.85
2022-11-22T03:49:49.769Z,10.87
2022-11-22T03:52:22.620Z,10.88
2022-11-22T03:54:55.397Z,10.89
2022-11-22T03:57:28.481Z,10.90
2022-11-22T04:00:02.706Z,10.92
2022-11-22T04:02:35.546Z,10.91
2022-11-22T04:05:09.109Z,10.94
2022-11-22T04:07:42.075Z,10.93
2022-11-22T04:10:17.757Z,10.95
2022-11-22T04:12:57.363Z,10.94
2022-11-22T04:15:30.890Z,10.95
2022-11-22T04:18:04.104Z,10.95
2022-11-22T04:20:54.597Z,10.96
2022-11-22T04:23:33.555Z,10.96
2022-11-22T04:26:05.732Z,10.94
2022-11-22T04:29:08.044Z,10.96
2022-11-22T04:31:50.207Z,10.98
2022-11-22T04:34:23.260Z,10.96
2022-11-22T04:36:55.982Z,10.97
2022-11-22T04:39:29.119Z,10.97
2022-11-22T04:42:19.991Z,10.95
2022-11-22T04:44:52.894Z,10.93
2022-11-22T04:47:49.993Z,10.95
2022-11-22T04:50:40.523Z,10.94
2022-11-22T04:53:13.763Z,10.93
2022-11-22T04:55:48.318Z,10.92
2022-11-22T04:58:21.517Z,10.93
2022-11-22T05:00:54.818Z,10.91
2022-11-22T05:03:29.171Z,10.93
2022-11-22T05:06:02.856Z,10.94
2022-11-22T05:08:35.624Z,10.90
2022-11-22T05:11:08.482Z,10.90
2022-11-22T05:13:43.845Z,10.89
2022-11-22T05:16:16.991Z,10.87
2022-11-22T05:19:00.202Z,10.86
2022-11-22T05:21:35.690Z,10.82
2022-11-22T05:24:08.039Z,10.78
2022-11-22T05:26:41.972Z,10.75
2022-11-22T05:29:14.743Z,10.71
2022-11-22T05:31:51.319Z,10.68
2022-11-22T05:34:25.909Z,10.66
2022-11-22T05:36:58.830Z,10.62
2022-11-22T05:39:31.960Z,10.58
2022-11-22T05:42:06.026Z,10.56
2022-11-22T05:44:38.829Z,10.54
2022-11-22T05:47:11.841Z,10.51
2022-11-22T05:49:46.197Z,10.49
2022-11-22T05:52:19.041Z,10.47
2022-11-22T05:54:51.861Z,10.45
2022-11-22T05:57:25.252Z,10.46
2022-11-22T05:59:58.033Z,10.46
2022-11-22T06:02:32.444Z,10.48
2022-11-22T06:05:07.358Z,10.49
2022-11-22T06:07:40.329Z,10.49
2022-11-22T06:10:13.135Z,10.49
2022-11-22T06:12:46.243Z,10.51
2022-11-22T06:15:19.069Z,10.52
2022-11-22T06:17:51.875Z,10.57
2022-11-22T06:20:26.081Z,10.61
2022-11-22T06:22:59.324Z,10.62
2022-11-22T06:25:33.357Z,10.61
2022-11-22T06:28:06.166Z,10.61
2022-11-22T06:30:39.040Z,10.61
2022-11-22T06:33:11.932Z,10.62
2022-11-22T06:35:46.124Z,10.61
2022-11-22T06:38:19.114Z,10.62
2022-11-22T06:40:51.900Z,10.60
2022-11-22T06:43:24.709Z,10.60
2022-11-22T06:45:57.853Z,10.61
2022-11-22T06:48:32.010Z,10.62
2022-11-22T06:51:08.166Z,10.65
2022-11-22T06:53:49.345Z,10.65
2022-11-22T06:56:24.283Z,10.68
2022-11-22T06:58:57.837Z,10.69
2022-11-22T07:01:31.759Z,10.70
2022-11-22T07:04:05.628Z,10.71
2022-11-22T07:06:40.179Z,10.72
2022-11-22T07:09:13.323Z,10.73
2022-11-22T07:11:46.104Z,10.73
2022-11-22T07:14:18.980Z,10.75
2022-11-22T07:16:51.770Z,10.75
2022-11-22T07:19:24.589Z,10.76
2022-11-22T07:21:58.760Z,10.79
2022-11-22T07:24:31.543Z,10.80
2022-11-22T07:27:04.461Z,10.81
2022-11-22T07:29:37.411Z,10.81
2022-11-22T07:32:10.230Z,10.82
2022-11-22T07:34:43.034Z,10.83
2022-11-22T07:37:17.240Z,10.85
2022-11-22T07:39:50.072Z,10.83
2022-11-22T07:42:26.144Z,10.85
2022-11-22T07:44:59.386Z,10.85
2022-11-22T07:47:33.222Z,10.86
2022-11-22T07:50:07.271Z,10.88
2022-11-22T07:52:41.452Z,10.90
2022-11-22T07:55:14.552Z,10.87
2022-11-22T07:57:47.339Z,10.89
2022-11-22T08:00:20.903Z,10.88
2022-11-22T08:02:53.945Z,10.89
2022-11-22T08:05:27.589Z,10.88
2022-11-22T08:08:01.867Z,10.90
2022-11-22T08:10:34.909Z,10.91
2022-11-22T08:13:07.769Z,10.94
2022-11-22T08:15:40.587Z,10.98
2022-11-22T08:18:13.373Z,11.01
2022-11-22T08:20:46.193Z,11.04
2022-11-22T08:23:20.366Z,11.10
2022-11-22T08:25:53.214Z,11.13
2022-11-22T08:28:26.067Z,11.15
2022-11-22T08:31:04.113Z,11.20
2022-11-22T08:33:37.204Z,11.23
2022-11-22T08:36:10.205Z,11.26
2022-11-22T08:38:44.571Z,11.28
2022-11-22T08:41:17.455Z,11.31
2022-11-22T08:43:51.389Z,11.33
2022-11-22T08:46:24.370Z,11.36
2022-11-22T08:48:57.158Z,11.40
2022-11-22T08:51:29.968Z,11.46
2022-11-22T08:54:04.227Z,11.49
2022-11-22T08:56:37.029Z,11.55
2022-11-22T08:59:09.851Z,11.58
2022-11-22T09:01:42.944Z,11.67
2022-11-22T09:04:15.804Z,11.69
2022-11-22T09:09:43.187Z,11.79
2022-11-22T09:12:16.196Z,11.83
2022-11-22T09:14:49.117Z,11.84
2022-11-22T09:17:22.121Z,11.87
2022-11-22T09:19:54.876Z,11.90
2022-11-22T09:22:28.708Z,11.94
2022-11-22T09:25:03.333Z,11.95
2022-11-22T09:27:36.922Z,11.95
2022-11-22T09:30:10.606Z,11.98
2022-11-22T09:32:44.592Z,12.01
2022-11-22T09:35:20.202Z,12.03
2022-11-22T09:37:53.495Z,12.08
2022-11-22T09:40:27.918Z,12.11
2022-11-22T09:43:18.321Z,12.19
2022-11-22T09:46:09.912Z,12.25
2022-11-22T09:49:13.349Z,12.28
2022-11-22T09:51:53.759Z,12.35
2022-11-22T09:54:30.155Z,12.38
2022-11-22T09:57:10.230Z,12.41
2022-11-22T09:59:47.475Z,12.46
2022-11-22T10:02:26.809Z,12.50
2022-11-22T10:05:03.484Z,12.52
2022-11-22T10:07:40.486Z,12.55
2022-11-22T10:10:18.735Z,12.60
2022-11-22T10:13:04.952Z,12.64
2022-11-22T10:15:45.996Z,12.68
2022-11-22T10:18:25.116Z,12.70
2022-11-22T10:20:57.999Z,12.70
2022-11-22T10:23:32.781Z,12.72
2022-11-22T10:26:13.151Z,12.73
2022-11-22T10:28:57.615Z,12.73
2022-11-22T10:31:36.994Z,12.74
2022-11-22T10:34:21.339Z,12.76
2022-11-22T10:37:01.966Z,12.73
2022-11-22T10:39:56.806Z,12.77
2022-11-22T10:42:49.742Z,12.76
2022-11-22T10:45:30.804Z,12.78
2022-11-22T10:48:17.878Z,12.78
2022-11-22T10:51:01.117Z,12.80
2022-11-22T10:53:48.153Z,12.83
2022-11-22T10:56:28.108Z,12.84
2022-11-22T10:59:25.859Z,12.88
2022-11-22T11:02:16.389Z,12.90
2022-11-22T11:04:51.131Z,12.92
2022-11-22T11:07:25.927Z,12.97
2022-11-22T11:10:11.524Z,13.00
2022-11-22T11:12:51.125Z,13.05
2022-11-22T11:15:29.256Z,13.08
2022-11-22T11:18:07.204Z,13.11
2022-11-22T11:20:43.739Z,13.15
2022-11-22T11:23:16.844Z,13.16
2022-11-22T11:25:53.988Z,13.20
2022-11-22T11:28:30.095Z,13.23
2022-11-22T11:31:09.050Z,13.28
2022-11-22T11:33:45.856Z,13.32
2022-11-22T11:36:22.096Z,13.34
2022-11-22T11:38:56.291Z,13.37
2022-11-22T11:41:31.410Z,13.41
2022-11-22T11:44:05.792Z,13.42
2022-11-22T11:46:46.696Z,13.48
2022-11-22T11:49:25.713Z,13.51
2022-11-22T11:52:00.616Z,13.53
2022-11-22T11:54:43.061Z,13.60
2022-11-22T11:57:20.158Z,13.63
2022-11-22T11:59:55.401Z,13.66
2022-11-22T12:02:34.188Z,13.67
2022-11-22T12:05:27.748Z,13.69
2022-11-22T12:08:02.049Z,13.68
2022-11-22T12:10:42.355Z,13.68
2022-11-22T12:13:24.727Z,13.68
2022-11-22T12:16:02.681Z,13.67
2022-11-22T12:18:40.268Z,13.65
2022-11-22T12:21:26.258Z,13.64
2022-11-22T12:24:26.887Z,13.61
2022-11-22T12:26:57.408Z,13.58
2022-11-22T12:29:31.571Z,13.58
2022-11-22T12:32:08.795Z,13.59
2022-11-22T12:34:53.028Z,13.58
2022-11-22T12:37:32.480Z,13.57
2022-11-22T12:40:16.151Z,13.55
2022-11-22T12:42:51.565Z,13.54
2022-11-22T12:45:31.880Z,13.55
2022-11-22T12:48:08.419Z,13.53
2022-11-22T12:50:45.464Z,13.53
2022-11-22T12:53:24.591Z,13.53
2022-11-22T12:56:05.730Z,13.53
2022-11-22T12:58:43.815Z,13.54
2022-11-22T13:01:21.830Z,13.53
2022-11-22T13:04:01.126Z,13.51
2022-11-22T13:06:39.086Z,13.53
2022-11-22T13:09:19.134Z,13.55
2022-11-22T13:11:58.716Z,13.55
2022-11-22T13:14:35.147Z,13.56
2022-11-22T13:17:09.176Z,13.59
2022-11-22T13:19:49.248Z,13.63
2022-11-22T13:22:29.696Z,13.64
2022-11-22T13:25:22.857Z,13.64
2022-11-22T13:27:59.334Z,13.62
2022-11-22T13:30:35.115Z,13.58
2022-11-22T13:33:24.460Z,13.55
2022-11-22T13:36:25.807Z,13.52
2022-11-22T13:39:01.244Z,13.48
2022-11-22T13:41:45.263Z,13.46
2022-11-22T13:44:26.947Z,13.42
2022-11-22T13:47:02.417Z,13.40
2022-11-22T13:49:48.194Z,13.42
2022-11-22T13:52:31.062Z,13.42
2022-11-22T13:55:27.114Z,13.41
2022-11-22T13:58:51.141Z,13.42
2022-11-22T14:02:02.659Z,13.44
2022-11-22T14:04:43.706Z,13.46
2022-11-22T14:07:40.686Z,13.45
2022-11-22T14:10:31.262Z,13.45
2022-11-22T14:13:34.972Z,13.45
2022-11-22T14:16:22.963Z,13.45
2022-11-22T14:19:07.907Z,13.44
2022-11-22T14:22:00.705Z,13.44
2022-11-22T14:24:54.123Z,13.38
2022-11-22T14:27:38.779Z,13.33
2022-11-22T14:30:18.585Z,13.25
2022-11-22T14:33:16.441Z,13.17
2022-11-22T14:36:16.988Z,13.10
2022-11-22T14:38:49.776Z,13.03
2022-11-22T14:41:46.762Z,12.99
2022-11-22T14:44:20.929Z,12.93
2022-11-22T14:46:58.405Z,12.91
2022-11-22T14:49:43.121Z,12.88
2022-11-22T14:52:22.142Z,12.82
2022-11-22T14:54:59.381Z,12.78
2022-11-22T14:57:35.447Z,12.75
2022-11-22T15:00:18.136Z,12.73
2022-11-22T15:03:17.395Z,12.70
2022-11-22T15:09:16.279Z,12.67
2022-11-22T15:09:46.727Z,12.64
2022-11-22T15:12:41.494Z,12.61
2022-11-22T15:57:33.585Z,12.07
2022-11-22T16:00:11.610Z,12.04
2022-11-22T16:02:50.318Z,12.01
2022-11-22T16:06:06.430Z,11.99
2022-11-22T16:08:31.080Z,11.98
2022-11-22T16:11:05.912Z,11.95
2022-11-22T16:13:40.109Z,11.94
2022-11-22T16:16:21.680Z,11.94
2022-11-22T16:18:54.504Z,11.93
2022-11-22T16:21:30.397Z,11.91
2022-11-22T16:24:12.750Z,11.93
2022-11-22T16:26:56.154Z,11.93
2022-11-22T16:29:34.084Z,11.92
2022-11-22T16:32:12.115Z,11.92
2022-11-22T16:34:44.939Z,11.90
2022-11-22T16:37:30.645Z,11.93
2022-11-22T16:40:06.824Z,11.90
2022-11-22T16:42:40.723Z,11.91
2022-11-22T16:45:19.102Z,11.91
2022-11-22T16:48:16.267Z,11.91
2022-11-22T16:50:50.980Z,11.93
2022-11-22T16:53:23.981Z,11.91
2022-11-22T16:55:56.848Z,11.91
2022-11-22T16:58:30.039Z,11.90
2022-11-22T17:01:04.584Z,11.89
2022-11-22T17:03:39.953Z,11.89
2022-11-22T17:06:18.379Z,11.87
2022-11-22T17:08:53.544Z,11.84
2022-11-22T17:11:28.007Z,11.83
2022-11-22T17:14:01.605Z,11.81
2022-11-22T17:16:35.886Z,11.82
2022-11-22T17:19:30.386Z,11.79
2022-11-22T17:22:01.886Z,11.78
2022-11-22T17:24:35.597Z,11.78
2022-11-22T17:27:08.418Z,11.76
2022-11-22T17:29:56.884Z,11.75
2022-11-22T17:32:31.471Z,11.73
2022-11-22T17:35:04.297Z,11.72
2022-11-22T17:37:37.101Z,11.71
2022-11-22T17:40:11.959Z,11.71
2022-11-22T17:42:44.730Z,11.68
2022-11-22T17:45:17.592Z,11.68
2022-11-22T17:47:52.813Z,11.67
2022-11-22T17:50:25.641Z,11.65
2022-11-22T17:52:58.415Z,11.65
2022-11-22T17:55:48.161Z,11.62
2022-11-22T17:58:24.302Z,11.63
2022-11-22T18:01:04.402Z,11.63
2022-11-22T18:03:39.128Z,11.60
2022-11-22T18:06:13.080Z,11.58
2022-11-22T18:08:47.380Z,11.58
2022-11-22T18:11:20.413Z,11.56
2022-11-22T18:13:53.432Z,11.55
2022-11-22T18:16:28.572Z,11.55
2022-11-22T18:19:03.087Z,11.55
2022-11-22T18:21:35.905Z,11.54
2022-11-22T18:24:09.511Z,11.54
2022-11-22T18:26:42.625Z,11.55
2022-11-22T18:32:08.581Z,11.55
2022-11-22T18:34:42.906Z,11.53
2022-11-22T18:37:15.877Z,11.52
2022-11-22T18:39:48.725Z,11.48
2022-11-22T18:42:23.491Z,11.47
2022-11-22T18:44:56.481Z,11.43
2022-11-22T18:47:29.394Z,11.40
2022-11-22T18:50:04.845Z,11.40
2022-11-22T18:52:39.056Z,11.35
2022-11-22T18:55:15.719Z,11.31
2022-11-22T18:57:52.218Z,11.29
2022-11-22T19:00:25.173Z,11.23
2022-11-22T19:02:59.455Z,11.19
2022-11-22T19:05:33.652Z,11.14
2022-11-22T19:08:08.988Z,11.08
2022-11-22T19:10:43.900Z,11.02
2022-11-22T19:13:17.104Z,10.98
2022-11-22T19:15:50.623Z,10.95
2022-11-22T19:18:23.493Z,10.93
2022-11-22T19:20:57.666Z,10.90
2022-11-22T19:23:31.528Z,10.86
2022-11-22T19:26:04.859Z,10.80
2022-11-22T19:28:37.872Z,10.78
2022-11-22T19:31:13.230Z,10.73
2022-11-22T19:33:46.995Z,10.70
2022-11-22T19:36:25.323Z,10.68
2022-11-22T19:39:05.423Z,10.64
2022-11-22T19:41:38.465Z,10.60
2022-11-22T19:44:12.317Z,10.59
2022-11-22T19:46:45.144Z,10.57
2022-11-22T19:49:18.137Z,10.55
2022-11-22T19:51:52.320Z,10.54
2022-11-22T19:54:25.237Z,10.53
2022-11-22T19:56:58.016Z,10.51
2022-11-22T19:59:33.718Z,10.52
2022-11-22T20:02:07.342Z,10.51
2022-11-22T20:04:40.250Z,10.55
2022-11-22T20:07:14.468Z,10.56
2022-11-22T20:09:47.288Z,10.57
2022-11-22T20:12:20.055Z,10.59
2022-11-22T20:14:52.845Z,10.62
2022-11-22T20:17:25.662Z,10.65
2022-11-22T20:19:58.520Z,10.67
2022-11-22T20:22:32.766Z,10.71
2022-11-22T20:25:06.419Z,10.72
2022-11-22T20:27:39.282Z,10.75
2022-11-22T20:30:13.069Z,10.78
2022-11-22T20:32:45.997Z,10.78
2022-11-22T20:35:18.895Z,10.79
2022-11-22T20:37:53.126Z,10.83
2022-11-22T20:40:26.027Z,10.83
2022-11-22T20:42:58.818Z,10.85
2022-11-22T20:45:32.534Z,10.86
2022-11-22T20:48:05.903Z,10.86
2022-11-22T20:50:38.740Z,10.88
2022-11-22T20:53:12.932Z,10.86
2022-11-22T20:55:45.803Z,10.88
2022-11-22T20:58:18.899Z,10.85
2022-11-22T21:00:51.824Z,10.85
2022-11-22T21:03:26.021Z,10.83
2022-11-22T21:06:01.125Z,10.82
2022-11-22T21:08:35.390Z,10.81
2022-11-22T21:11:10.723Z,10.81
2022-11-22T21:13:44.809Z,10.78
2022-11-22T21:16:24.473Z,10.79
2022-11-22T21:18:59.513Z,10.79
2022-11-22T21:21:33.527Z,10.77
2022-11-22T21:24:08.857Z,10.79
2022-11-22T21:26:41.780Z,10.77
2022-11-22T21:29:16.663Z,10.78
2022-11-22T21:31:49.703Z,10.79
2022-11-22T21:34:22.538Z,10.79
2022-11-22T21:36:55.386Z,10.81
2022-11-22T21:39:29.629Z,10.81
2022-11-22T21:42:02.637Z,10.82
2022-11-22T21:44:35.419Z,10.82
2022-11-22T21:47:08.246Z,10.80
2022-11-22T21:49:41.119Z,10.79
2022-11-22T21:52:14.223Z,10.81
2022-11-22T21:54:48.780Z,10.80
2022-11-22T21:57:21.707Z,10.80
2022-11-22T21:59:54.496Z,10.79
2022-11-22T22:02:29.614Z,10.79
2022-11-22T22:05:02.600Z,10.79
2022-11-22T22:07:52.293Z,10.79
2022-11-22T22:10:27.038Z,10.80
2022-11-22T22:12:59.959Z,10.80
2022-11-22T22:15:32.780Z,10.81
2022-11-22T22:18:05.648Z,10.80
2022-11-22T22:20:38.436Z,10.82
2022-11-22T22:23:11.280Z,10.80
2022-11-22T22:25:45.479Z,10.81
2022-11-22T22:28:18.538Z,10.80
2022-11-22T22:30:51.307Z,10.80
2022-11-22T22:33:24.151Z,10.79
2022-11-22T22:35:57.767Z,10.78
2022-11-22T22:38:31.523Z,10.78
2022-11-22T22:41:06.619Z,10.79
2022-11-22T22:43:41.841Z,10.76
2022-11-22T22:46:16.609Z,10.78
2022-11-22T22:48:50.716Z,10.77
2022-11-22T22:51:32.027Z,10.78
2022-11-22T22:54:06.078Z,10.77
2022-11-22T22:56:41.547Z,10.78
2022-11-22T22:59:14.392Z,10.76
2022-11-22T23:01:47.213Z,10.76
2022-11-22T23:04:20.046Z,10.75
2022-11-22T23:06:52.956Z,10.75
2022-11-22T23:09:25.767Z,10.73
2022-11-22T23:12:11.745Z,10.73
2022-11-22T23:14:44.592Z,10.72
2022-11-22T23:17:17.424Z,10.71
2022-11-22T23:19:50.246Z,10.72
2022-11-22T23:22:25.910Z,10.71
2022-11-22T23:24:59.019Z,10.72
2022-11-22T23:27:33.244Z,10.72
2022-11-22T23:30:07.262Z,10.71
2022-11-22T23:32:40.066Z,10.72
2022-11-22T23:35:12.889Z,10.73
2022-11-22T23:37:45.646Z,10.72
2022-11-22T23:40:18.453Z,10.73
2022-11-22T23:42:52.600Z,10.73
2022-11-22T23:45:25.488Z,10.73
2022-11-22T23:47:58.299Z,10.72
2022-11-22T23:50:36.073Z,10.73
2022-11-22T23:53:10.280Z,10.72
2022-11-22T23:55:43.342Z,10.70
2022-11-22T23:58:17.487Z,10.69
